Time;durP1;ratioP1;P1;durP2;ratioP2;P2;SDS_P1;SDS_P2;PMS_P1;PMS_P2;Temp;Humidity;BMP_temperature;BMP_pressure;BME280_temperature;BME280_humidity;BME280_pressure;Samples;Min_cycle;Max_cycle;Signal;HPM_P1;HPM_P2
2021/12/02 00:01:16;;;;;;;3.15;1.08;;;3.50;99.90;;;;;;5036261;28;20063;-80
2021/12/02 00:03:43;;;;;;;1.35;1.10;;;3.50;99.90;;;;;;5005435;28;20497;-81
2021/12/02 00:06:13;;;;;;;1.00;0.95;;;3.50;99.90;;;;;;5013392;28;20144;-80
2021/12/02 00:08:40;;;;;;;3.22;0.80;;;3.50;99.90;;;;;;5030066;28;20037;-80
2021/12/02 00:11:06;;;;;;;1.00;1.00;;;3.40;99.90;;;;;;5029555;28;20413;-80
2021/12/02 00:13:44;;;;;;;0.70;0.70;;;3.40;99.90;;;;;;5018267;28;20109;-80
2021/12/02 00:21:10;;;;;;;2.03;1.58;;;3.30;99.90;;;;;;5008998;28;20041;-80
2021/12/02 00:23:49;;;;;;;3.63;1.60;;;3.30;99.90;;;;;;5024790;28;20071;-80
2021/12/02 00:26:17;;;;;;;1.00;1.00;;;3.40;99.90;;;;;;5033027;28;20056;-79
2021/12/02 00:28:43;;;;;;;2.90;1.15;;;3.30;99.90;;;;;;5023453;28;20132;-79
2021/12/02 00:31:18;;;;;;;1.80;1.08;;;3.30;99.90;;;;;;5028641;28;20049;-79
2021/12/02 00:33:47;;;;;;;1.17;1.08;;;3.10;99.90;;;;;;5027786;28;20038;-78
2021/12/02 00:36:14;;;;;;;1.95;1.38;;;3.10;99.90;;;;;;5027422;28;20060;-78
2021/12/02 00:38:42;;;;;;;0.70;0.70;;;3.10;99.90;;;;;;5013766;28;20093;-78
2021/12/02 00:41:13;;;;;;;1.02;1.02;;;3.00;99.90;;;;;;5025096;28;20049;-78
2021/12/02 00:43:40;;;;;;;0.80;0.80;;;3.00;99.90;;;;;;5032487;28;20383;-78
2021/12/02 00:46:09;;;;;;;0.80;0.80;;;3.00;99.90;;;;;;5014910;28;20077;-77
2021/12/02 00:48:37;;;;;;;0.98;0.98;;;3.30;99.90;;;;;;5013801;28;20040;-76
2021/12/02 00:51:05;;;;;;;0.70;0.70;;;3.10;99.90;;;;;;5027412;28;20103;-76
2021/12/02 00:53:33;;;;;;;1.33;1.23;;;3.30;99.90;;;;;;5011874;28;20037;-77
2021/12/02 00:56:05;;;;;;;0.70;0.70;;;3.30;99.90;;;;;;5032244;28;20166;-77
2021/12/02 00:58:32;;;;;;;2.35;1.17;;;3.30;99.90;;;;;;5030450;28;20386;-77
2021/12/02 01:00:59;;;;;;;1.45;0.80;;;3.50;99.90;;;;;;5030089;28;20052;-77
2021/12/02 01:03:33;;;;;;;0.90;0.90;;;3.60;99.90;;;;;;5041565;28;20138;-77
2021/12/02 01:05:59;;;;;;;0.60;0.60;;;3.40;99.90;;;;;;5017302;28;20053;-77
2021/12/02 01:08:25;;;;;;;;;;;3.50;99.90;;;;;;5035318;28;20077;-79
2021/12/02 01:10:51;;;;;;;0.80;0.80;;;3.60;99.90;;;;;;5032659;28;20033;-79
2021/12/02 01:13:17;;;;;;;1.80;1.00;;;3.50;99.90;;;;;;5027427;28;20390;-79
2021/12/02 01:15:43;;;;;;;1.13;0.73;;;3.50;99.90;;;;;;5032789;28;20037;-79
2021/12/02 01:18:09;;;;;;;2.05;0.88;;;3.60;99.90;;;;;;5022520;28;20136;-78
2021/12/02 01:20:35;;;;;;;1.17;1.05;;;3.60;99.90;;;;;;5013606;28;20041;-79
2021/12/02 01:23:01;;;;;;;;;;;3.60;99.90;;;;;;5026171;28;20049;-78
2021/12/02 01:25:31;;;;;;;0.75;0.75;;;3.60;99.90;;;;;;5031727;28;19923;-78
2021/12/02 01:27:59;;;;;;;0.88;0.85;;;3.50;99.90;;;;;;5038556;28;20045;-80
2021/12/02 01:30:30;;;;;;;0.68;0.68;;;3.60;99.90;;;;;;5041366;28;20045;-79
2021/12/02 01:33:05;;;;;;;0.80;0.80;;;3.70;99.90;;;;;;5017331;28;20466;-80
2021/12/02 01:35:35;;;;;;;0.60;0.60;;;3.50;99.90;;;;;;5031286;28;20048;-80
2021/12/02 01:38:01;;;;;;;3.90;1.15;;;3.50;99.90;;;;;;5024702;28;20037;-80
2021/12/02 01:40:27;;;;;;;3.28;1.80;;;3.50;99.90;;;;;;5032723;28;20123;-80
2021/12/02 01:42:55;;;;;;;;;;;3.60;99.90;;;;;;5002199;28;20041;-80
2021/12/02 01:45:22;;;;;;;;;;;3.40;99.90;;;;;;5030956;28;19916;-80
2021/12/02 01:47:51;;;;;;;;;;;3.30;99.90;;;;;;5038842;28;19920;-79
2021/12/02 01:50:20;;;;;;;0.80;0.80;;;3.30;99.90;;;;;;5025942;28;20235;-79
2021/12/02 01:52:49;;;;;;;0.75;0.75;;;3.20;99.90;;;;;;5013277;28;20052;-79
2021/12/02 01:55:16;;;;;;;0.93;0.90;;;3.10;99.90;;;;;;5030354;28;20074;-79
2021/12/02 01:57:58;;;;;;;1.17;1.00;;;3.20;99.90;;;;;;5013433;28;20050;-79
2021/12/02 02:00:44;;;;;;;0.80;0.80;;;3.10;99.90;;;;;;5030439;28;20533;-79
2021/12/02 02:03:11;;;;;;;0.60;0.60;;;3.00;99.90;;;;;;5016926;28;20052;-78
2021/12/02 02:05:38;;;;;;;3.13;1.00;;;3.20;99.90;;;;;;5014728;28;20404;-79
2021/12/02 02:08:15;;;;;;;1.50;1.08;;;3.00;99.90;;;;;;5025195;28;20046;-78
2021/12/02 02:10:43;;;;;;;0.98;0.80;;;3.00;99.90;;;;;;5031087;28;20041;-78
2021/12/02 02:13:10;;;;;;;0.80;0.80;;;2.90;99.90;;;;;;5021544;28;20124;-79
2021/12/02 02:15:38;;;;;;;0.93;0.93;;;2.90;99.90;;;;;;5024200;28;20500;-79
2021/12/02 02:21:03;;;;;;;0.88;0.88;;;2.90;99.90;;;;;;5030677;28;20045;-79
2021/12/02 02:23:32;;;;;;;0.80;0.80;;;2.90;99.90;;;;;;5022900;28;20395;-79
2021/12/02 02:25:59;;;;;;;4.97;1.33;;;2.80;99.90;;;;;;5028752;28;20045;-80
2021/12/02 02:28:27;;;;;;;1.27;1.17;;;2.80;99.90;;;;;;5039084;28;20052;-80
2021/12/02 02:30:53;;;;;;;0.93;0.93;;;2.90;99.90;;;;;;5014408;28;20045;-80
2021/12/02 02:33:20;;;;;;;1.35;1.25;;;2.70;99.90;;;;;;5022210;28;20552;-80
2021/12/02 02:35:47;;;;;;;1.60;1.50;;;2.80;99.90;;;;;;4972825;28;1325394;-80
2021/12/02 02:38:14;;;;;;;0.95;0.95;;;2.90;99.90;;;;;;5043037;28;20176;-80
2021/12/02 02:40:43;;;;;;;0.68;0.68;;;2.90;99.90;;;;;;5010498;28;20498;-81
2021/12/02 02:43:11;;;;;;;2.05;1.45;;;3.10;99.90;;;;;;5011556;28;20427;-80
2021/12/02 02:45:38;;;;;;;0.95;0.93;;;3.00;99.90;;;;;;5034088;28;20057;-79
2021/12/02 02:48:05;;;;;;;7.95;1.23;;;3.10;99.90;;;;;;5029699;28;20045;-80
2021/12/02 02:50:32;;;;;;;1.50;1.00;;;3.20;99.90;;;;;;5029542;28;20046;-79
2021/12/02 02:53:21;;;;;;;0.70;0.70;;;3.10;99.90;;;;;;5033411;28;20689;-80
2021/12/02 02:56:10;;;;;;;0.60;0.60;;;3.10;99.90;;;;;;5023362;28;20118;-80
2021/12/02 03:04:14;;;;;;;0.73;0.73;;;3.00;99.90;;;;;;5001428;28;20087;-79
2021/12/02 03:06:50;;;;;;;0.80;0.80;;;3.00;99.90;;;;;;5028593;28;20471;-80
2021/12/02 03:17:13;;;;;;;0.60;0.60;;;3.10;99.90;;;;;;5036108;28;20457;-79
2021/12/02 03:19:41;;;;;;;0.80;0.80;;;3.00;99.90;;;;;;5017659;28;20073;-79
2021/12/02 03:22:08;;;;;;;1.67;1.33;;;2.80;99.90;;;;;;5013855;28;20056;-79
2021/12/02 03:24:34;;;;;;;3.05;0.77;;;2.80;99.90;;;;;;5030409;28;20087;-80
2021/12/02 03:27:00;;;;;;;0.80;0.80;;;2.70;99.90;;;;;;5034315;28;20041;-79
2021/12/02 03:29:26;;;;;;;0.80;0.80;;;2.40;99.90;;;;;;5008791;28;20056;-79
2021/12/02 03:31:52;;;;;;;0.85;0.85;;;3.00;99.90;;;;;;5029112;28;20056;-79
2021/12/02 03:34:20;;;;;;;0.80;0.80;;;2.40;99.90;;;;;;5030694;28;20046;-79
2021/12/02 03:36:52;;;;;;;0.90;0.90;;;2.40;99.90;;;;;;5013678;28;20278;-79
2021/12/02 03:39:19;;;;;;;0.77;0.77;;;2.00;99.90;;;;;;5016011;28;20048;-79
2021/12/02 03:41:45;;;;;;;0.80;0.80;;;2.10;99.90;;;;;;5025938;28;20053;-79
2021/12/02 03:44:12;;;;;;;0.80;0.80;;;2.90;99.90;;;;;;5036756;28;20098;-79
2021/12/02 03:46:40;;;;;;;1.38;1.30;;;2.20;99.90;;;;;;5033557;28;20046;-78
2021/12/02 03:49:06;;;;;;;0.70;0.70;;;2.30;99.90;;;;;;5026693;28;20073;-78
2021/12/02 03:51:32;;;;;;;0.80;0.80;;;2.00;99.90;;;;;;5037320;28;20091;-79
2021/12/02 03:53:58;;;;;;;0.88;0.88;;;2.10;99.90;;;;;;5024477;28;20034;-78
2021/12/02 03:56:24;;;;;;;0.70;0.70;;;2.20;99.90;;;;;;5021787;28;20041;-78
2021/12/02 03:58:51;;;;;;;3.55;1.27;;;2.20;99.90;;;;;;5027359;28;20387;-78
2021/12/02 04:01:19;;;;;;;2.92;1.00;;;2.00;99.90;;;;;;5006206;28;20099;-78
2021/12/02 04:03:45;;;;;;;0.65;0.65;;;1.80;99.90;;;;;;5029514;28;20081;-79
2021/12/02 04:06:11;;;;;;;0.90;0.90;;;1.80;99.90;;;;;;5020817;28;20056;-79
2021/12/02 04:08:43;;;;;;;0.90;0.90;;;2.00;99.90;;;;;;5008782;28;20657;-78
2021/12/02 04:11:59;;;;;;;0.80;0.80;;;1.50;99.90;;;;;;5016732;28;20739;-79
2021/12/02 04:16:51;;;;;;;0.88;0.88;;;2.10;99.90;;;;;;5010023;28;20149;-80
2021/12/02 04:19:17;;;;;;;1.90;1.15;;;1.60;99.90;;;;;;5024593;28;20045;-80
2021/12/02 04:21:43;;;;;;;0.70;0.70;;;1.70;99.90;;;;;;5029116;28;20053;-79
2021/12/02 04:24:08;;;;;;;13.40;1.48;;;1.60;99.90;;;;;;5025274;28;20033;-79
2021/12/02 04:26:34;;;;;;;0.80;0.80;;;1.60;99.90;;;;;;5013194;28;20152;-79
2021/12/02 04:29:00;;;;;;;0.75;0.75;;;2.20;99.90;;;;;;5032940;28;20053;-80
2021/12/02 04:31:25;;;;;;;0.70;0.70;;;2.00;99.90;;;;;;5034402;28;20398;-80
2021/12/02 04:33:51;;;;;;;0.90;0.90;;;2.30;99.90;;;;;;5036715;28;20037;-80
2021/12/02 04:36:17;;;;;;;0.82;0.82;;;2.10;99.90;;;;;;5025715;28;20049;-80
2021/12/02 04:38:44;;;;;;;0.73;0.73;;;2.00;99.90;;;;;;5015909;28;20402;-81
2021/12/02 04:41:10;;;;;;;1.00;1.00;;;1.70;99.90;;;;;;5038296;28;20045;-80
2021/12/02 04:43:36;;;;;;;0.80;0.80;;;1.60;99.90;;;;;;5012460;28;20128;-80
2021/12/02 04:46:01;;;;;;;0.80;0.80;;;1.80;99.90;;;;;;5046959;28;20124;-81
2021/12/02 04:48:27;;;;;;;0.80;0.80;;;1.50;99.90;;;;;;5030200;28;20135;-81
2021/12/02 04:50:53;;;;;;;1.67;1.20;;;1.40;99.90;;;;;;5012693;28;20059;-80
2021/12/02 04:53:19;;;;;;;2.80;0.98;;;1.40;99.90;;;;;;5029610;28;20057;-79
2021/12/02 04:55:44;;;;;;;1.13;1.02;;;1.30;99.90;;;;;;5019651;28;20069;-80
2021/12/02 04:58:10;;;;;;;0.82;0.82;;;1.30;99.90;;;;;;5036950;28;20040;-80
2021/12/02 05:00:36;;;;;;;0.70;0.70;;;1.40;99.90;;;;;;5026345;28;20431;-80
2021/12/02 05:03:02;;;;;;;0.88;0.88;;;1.30;99.90;;;;;;5004714;28;20525;-80
2021/12/02 05:05:28;;;;;;;1.52;1.42;;;1.10;99.90;;;;;;5031305;28;20055;-80
2021/12/02 05:07:54;;;;;;;3.33;1.33;;;1.30;99.90;;;;;;5028191;28;20037;-79
2021/12/02 05:10:21;;;;;;;0.77;0.77;;;1.20;99.90;;;;;;5014612;28;20071;-79
2021/12/02 05:12:48;;;;;;;0.90;0.90;;;1.40;99.90;;;;;;5018281;28;20053;-80
2021/12/02 05:15:14;;;;;;;0.80;0.80;;;1.30;99.90;;;;;;5036407;28;20371;-80
2021/12/02 05:17:39;;;;;;;;;;;1.20;99.90;;;;;;5016790;28;20040;-81
2021/12/02 05:20:06;;;;;;;0.70;0.70;;;1.20;99.90;;;;;;5024848;28;20464;-80
2021/12/02 05:22:33;;;;;;;0.80;0.80;;;1.40;99.90;;;;;;5017969;28;20048;-80
2021/12/02 05:24:59;;;;;;;0.90;0.90;;;1.30;99.90;;;;;;5029067;28;20039;-80
2021/12/02 05:27:24;;;;;;;;;;;1.30;99.90;;;;;;5025645;28;20030;-80
2021/12/02 05:29:50;;;;;;;1.00;1.00;;;1.50;99.90;;;;;;5005697;28;20424;-80
2021/12/02 05:32:16;;;;;;;5.63;1.20;;;1.40;99.90;;;;;;5025669;28;20088;-80
2021/12/02 05:34:47;;;;;;;;;;;1.70;99.90;;;;;;5033571;28;20072;-80
2021/12/02 05:37:13;;;;;;;0.70;0.70;;;2.20;99.90;;;;;;5020166;28;19932;-80
2021/12/02 05:39:42;;;;;;;0.75;0.75;;;1.60;99.90;;;;;;5020030;28;20444;-81
2021/12/02 05:42:08;;;;;;;0.75;0.75;;;1.80;99.90;;;;;;5011246;28;20061;-82
2021/12/02 05:44:34;;;;;;;1.00;1.00;;;1.70;99.90;;;;;;5023809;28;20487;-81
2021/12/02 05:47:00;;;;;;;0.80;0.80;;;2.40;99.90;;;;;;5029981;28;20045;-80
2021/12/02 05:49:27;;;;;;;1.48;1.10;;;1.50;99.90;;;;;;5031612;28;20060;-80
2021/12/02 05:51:53;;;;;;;0.65;0.65;;;1.60;99.90;;;;;;5027939;28;20059;-80
2021/12/02 05:54:20;;;;;;;1.65;1.15;;;1.40;99.90;;;;;;5028297;28;20137;-81
2021/12/02 05:56:46;;;;;;;0.85;0.85;;;1.60;99.90;;;;;;5027824;28;20030;-81
2021/12/02 05:59:12;;;;;;;0.80;0.80;;;1.40;99.90;;;;;;4993010;28;20071;-81
2021/12/02 06:01:42;;;;;;;0.80;0.80;;;1.50;99.90;;;;;;5032371;28;20029;-82
2021/12/02 06:04:09;;;;;;;1.08;0.98;;;1.50;99.90;;;;;;5050061;28;20502;-82
2021/12/02 06:06:34;;;;;;;1.00;0.90;;;1.40;99.90;;;;;;5033918;28;20056;-82
2021/12/02 06:09:00;;;;;;;0.90;0.90;;;1.40;99.90;;;;;;5027915;28;20487;-82
2021/12/02 06:11:26;;;;;;;0.80;0.80;;;1.80;99.90;;;;;;5024649;28;20130;-82
2021/12/02 06:13:51;;;;;;;0.90;0.90;;;1.30;99.90;;;;;;5033175;28;20037;-84
2021/12/02 06:16:17;;;;;;;1.02;1.02;;;1.30;99.90;;;;;;5014978;28;20048;-82
2021/12/02 06:18:43;;;;;;;0.90;0.90;;;1.40;99.90;;;;;;5012316;28;20045;-83
2021/12/02 06:21:09;;;;;;;0.80;0.80;;;1.20;99.90;;;;;;5032510;28;20451;-83
2021/12/02 06:23:36;;;;;;;0.93;0.93;;;1.20;99.90;;;;;;5024492;28;20100;-83
2021/12/02 06:26:02;;;;;;;0.80;0.80;;;1.20;99.90;;;;;;5035669;28;20057;-82
2021/12/02 06:28:28;;;;;;;0.80;0.80;;;1.30;99.90;;;;;;5031593;28;20049;-80
2021/12/02 06:30:53;;;;;;;0.88;0.88;;;1.20;99.90;;;;;;5029034;28;20049;-83
2021/12/02 06:33:19;;;;;;;1.52;1.42;;;1.30;99.90;;;;;;5027100;28;20132;-82
2021/12/02 06:35:45;;;;;;;0.80;0.80;;;1.10;99.90;;;;;;5023914;28;20491;-82
2021/12/02 06:38:11;;;;;;;0.70;0.70;;;1.20;99.90;;;;;;5031446;28;20493;-83
2021/12/02 06:40:39;;;;;;;0.70;0.70;;;1.10;99.90;;;;;;5012015;28;20099;-82
2021/12/02 06:43:05;;;;;;;0.80;0.80;;;1.20;99.90;;;;;;5000302;28;20038;-83
2021/12/02 06:45:30;;;;;;;0.90;0.90;;;1.20;99.90;;;;;;5011084;28;20566;-82
2021/12/02 06:48:00;;;;;;;0.80;0.80;;;1.10;99.90;;;;;;5016096;28;20040;-82
2021/12/02 06:50:28;;;;;;;0.85;0.85;;;1.20;99.90;;;;;;5012344;28;20487;-84
2021/12/02 06:52:54;;;;;;;0.80;0.80;;;1.20;99.90;;;;;;5012559;28;20044;-83
2021/12/02 06:55:21;;;;;;;0.88;0.88;;;0.90;99.90;;;;;;4997680;28;20490;-82
2021/12/02 06:57:47;;;;;;;0.75;0.75;;;1.00;99.90;;;;;;5015076;28;20463;-83
2021/12/02 07:00:15;;;;;;;0.80;0.80;;;1.00;99.90;;;;;;5013379;28;20084;-84
2021/12/02 07:02:42;;;;;;;0.70;0.70;;;1.20;99.90;;;;;;5006469;28;20077;-81
2021/12/02 07:05:10;;;;;;;0.82;0.82;;;1.20;99.90;;;;;;5014275;28;20455;-81
2021/12/02 07:07:37;;;;;;;1.00;1.00;;;1.20;99.90;;;;;;5014620;28;20120;-80
2021/12/02 07:10:11;;;;;;;1.35;1.25;;;1.70;99.90;;;;;;5011737;28;20049;-81
2021/12/02 07:12:39;;;;;;;1.08;1.08;;;0.90;99.90;;;;;;5008371;28;20422;-81
2021/12/02 07:15:17;;;;;;;0.77;0.77;;;1.10;99.90;;;;;;5012924;28;20064;-81
2021/12/02 07:17:51;;;;;;;1.02;0.98;;;1.10;99.90;;;;;;5009067;28;20033;-81
2021/12/02 07:20:17;;;;;;;0.80;0.80;;;1.60;99.90;;;;;;5026884;28;20120;-81
2021/12/02 07:22:43;;;;;;;0.98;0.90;;;1.10;99.90;;;;;;5020078;28;20495;-81
2021/12/02 07:25:09;;;;;;;1.45;1.35;;;0.90;99.90;;;;;;5007688;28;20114;-81
2021/12/02 07:27:35;;;;;;;;;;;1.10;99.90;;;;;;4998117;28;20068;-81
2021/12/02 07:30:01;;;;;;;0.90;0.90;;;0.90;99.90;;;;;;5003540;28;19917;-81
2021/12/02 07:32:37;;;;;;;5.47;1.05;;;1.00;99.90;;;;;;4975482;28;20052;-81
2021/12/02 07:35:08;;;;;;;0.80;0.80;;;1.00;99.90;;;;;;4986738;28;20408;-81
2021/12/02 07:37:34;;;;;;;4.78;1.63;;;1.00;99.90;;;;;;5023275;28;20400;-81
2021/12/02 07:40:01;;;;;;;1.20;1.10;;;1.00;99.90;;;;;;5015005;28;20056;-82
2021/12/02 07:42:27;;;;;;;0.80;0.80;;;0.90;99.90;;;;;;4994685;28;20045;-81
2021/12/02 07:44:54;;;;;;;1.08;1.05;;;1.00;99.90;;;;;;5027935;28;20045;-81
2021/12/02 07:47:20;;;;;;;0.90;0.90;;;1.00;99.90;;;;;;5013286;28;20373;-81
2021/12/02 07:49:49;;;;;;;0.70;0.70;;;0.80;99.90;;;;;;4987900;28;20044;-80
2021/12/02 07:52:19;;;;;;;1.10;1.05;;;1.00;99.90;;;;;;5026511;28;20046;-80
2021/12/02 07:54:48;;;;;;;0.73;0.73;;;0.70;99.90;;;;;;5007151;28;20072;-80
2021/12/02 07:57:14;;;;;;;0.88;0.88;;;0.90;99.90;;;;;;5025021;28;20033;-79
2021/12/02 07:59:40;;;;;;;;;;;0.90;99.90;;;;;;5019812;28;20075;-79
2021/12/02 08:02:10;;;;;;;1.25;1.10;;;1.00;99.90;;;;;;5032137;28;19921;-79
2021/12/02 08:04:36;;;;;;;1.42;1.33;;;1.00;99.90;;;;;;5007457;28;20080;-78
2021/12/02 08:07:02;;;;;;;1.10;0.98;;;1.10;99.90;;;;;;5013343;28;20084;-79
2021/12/02 08:09:27;;;;;;;1.20;1.10;;;1.10;99.90;;;;;;5026073;28;20053;-79
2021/12/02 08:11:54;;;;;;;1.23;1.13;;;1.10;99.90;;;;;;5010286;28;20029;-78
2021/12/02 08:14:19;;;;;;;0.90;0.90;;;1.30;99.90;;;;;;5007987;28;20045;-78
2021/12/02 08:16:45;;;;;;;1.48;1.38;;;1.40;99.90;;;;;;5012600;28;20438;-79
2021/12/02 08:19:12;;;;;;;3.15;1.38;;;1.40;99.90;;;;;;5011551;28;20049;-79
2021/12/02 08:21:38;;;;;;;1.25;1.15;;;1.90;99.90;;;;;;5034234;28;20036;-81
2021/12/02 08:24:04;;;;;;;1.05;1.05;;;1.60;99.90;;;;;;5028153;28;20088;-79
2021/12/02 08:26:30;;;;;;;;;;;1.70;99.90;;;;;;5037660;28;20075;-81
2021/12/02 08:28:56;;;;;;;1.00;1.00;;;1.80;99.90;;;;;;5010586;28;19917;-81
2021/12/02 08:31:22;;;;;;;1.92;1.83;;;2.00;99.90;;;;;;5030713;28;20125;-81
2021/12/02 08:33:50;;;;;;;2.55;2.35;;;1.90;99.90;;;;;;5013776;28;20048;-78
2021/12/02 08:36:16;;;;;;;2.47;1.27;;;2.00;99.90;;;;;;5015946;28;20140;-79
2021/12/02 08:38:44;;;;;;;;;;;2.10;99.90;;;;;;5033554;28;20489;-81
2021/12/02 08:41:12;;;;;;;4.53;1.55;;;2.20;99.90;;;;;;5011847;28;19938;-81
2021/12/02 08:43:38;;;;;;;1.20;1.10;;;2.20;99.90;;;;;;5016553;28;20041;-81
2021/12/02 08:46:04;;;;;;;2.60;2.42;;;2.30;99.90;;;;;;4997598;28;20128;-81
2021/12/02 08:48:30;;;;;;;2.60;2.40;;;2.30;99.90;;;;;;5011885;28;20121;-80
2021/12/02 08:50:56;;;;;;;3.60;3.15;;;2.30;99.90;;;;;;4998842;28;20037;-80
2021/12/02 08:53:22;;;;;;;4.00;2.25;;;2.30;99.90;;;;;;5016581;28;20067;-81
2021/12/02 08:55:48;;;;;;;0.93;0.93;;;2.40;99.90;;;;;;5016597;28;20128;-81
2021/12/02 08:58:14;;;;;;;4.47;1.90;;;2.40;99.90;;;;;;5015932;28;20457;-80
2021/12/02 09:00:41;;;;;;;1.60;1.50;;;2.40;99.90;;;;;;4990532;28;20033;-81
2021/12/02 09:03:12;;;;;;;1.10;1.10;;;2.50;99.90;;;;;;5010937;28;20048;-80
2021/12/02 09:05:37;;;;;;;1.75;1.33;;;2.30;99.90;;;;;;5035844;28;20045;-80
2021/12/02 09:08:03;;;;;;;2.25;1.50;;;2.40;99.90;;;;;;5012937;28;20155;-80
2021/12/02 09:10:29;;;;;;;2.15;1.00;;;2.40;99.90;;;;;;5015162;28;20088;-80
2021/12/02 09:12:56;;;;;;;1.85;1.75;;;2.30;99.90;;;;;;5031981;28;20033;-80
2021/12/02 09:15:23;;;;;;;0.95;0.90;;;2.40;99.90;;;;;;5023331;28;20046;-80
2021/12/02 09:17:49;;;;;;;1.10;1.00;;;2.30;99.90;;;;;;5013812;28;20542;-80
2021/12/02 09:20:16;;;;;;;0.80;0.80;;;2.40;99.90;;;;;;5015639;28;20120;-80
2021/12/02 09:22:43;;;;;;;1.20;1.10;;;2.50;99.90;;;;;;5025544;28;20045;-80
2021/12/02 09:25:10;;;;;;;1.30;1.20;;;2.40;99.90;;;;;;5018838;28;20084;-80
2021/12/02 09:27:36;;;;;;;1.25;1.20;;;2.50;99.90;;;;;;5005863;28;20074;-81
2021/12/02 09:30:03;;;;;;;0.90;0.90;;;2.50;99.90;;;;;;5000234;28;20053;-80
2021/12/02 09:32:30;;;;;;;0.82;0.82;;;2.50;99.90;;;;;;5037131;28;20376;-80
2021/12/02 09:34:55;;;;;;;0.70;0.70;;;2.50;99.90;;;;;;5019453;28;20042;-81
2021/12/02 09:37:21;;;;;;;1.15;1.05;;;2.60;99.90;;;;;;4992182;28;20344;-81
2021/12/02 09:39:47;;;;;;;1.10;1.10;;;2.70;99.90;;;;;;5015997;28;20041;-81
2021/12/02 09:42:14;;;;;;;1.27;1.10;;;2.40;99.90;;;;;;5016163;28;20045;-82
2021/12/02 09:44:43;;;;;;;1.48;1.38;;;2.30;99.90;;;;;;5015173;28;20052;-82
2021/12/02 09:47:09;;;;;;;1.17;1.08;;;2.40;99.90;;;;;;5024330;28;20049;-82
2021/12/02 09:49:34;;;;;;;1.30;1.20;;;2.10;99.90;;;;;;5028197;28;20056;-82
2021/12/02 09:52:03;;;;;;;0.80;0.80;;;2.40;99.90;;;;;;5015828;28;20045;-83
2021/12/02 09:54:48;;;;;;;1.23;1.13;;;1.10;99.90;;;;;;4984871;28;20048;-81
2021/12/02 09:57:17;;;;;;;1.10;1.00;;;0.90;99.90;;;;;;5018583;28;20099;-85
2021/12/02 10:02:12;;;;;;;1.15;1.15;;;0.90;99.90;;;;;;5028979;28;20445;-85
2021/12/02 10:05:02;;;;;;;1.10;1.00;;;0.90;99.90;;;;;;5013259;28;20045;-85
2021/12/02 10:07:37;;;;;;;1.00;1.00;;;0.90;99.90;;;;;;5016907;28;20077;-82
2021/12/02 10:10:50;;;;;;;0.80;0.80;;;0.90;99.90;;;;;;5013727;28;20047;-85
2021/12/02 10:13:15;;;;;;;0.65;0.65;;;0.90;99.90;;;;;;5030338;28;20049;-82
2021/12/02 10:15:50;;;;;;;0.80;0.80;;;0.90;99.90;;;;;;5011617;28;20112;-84
2021/12/02 10:18:17;;;;;;;0.98;0.98;;;1.10;99.90;;;;;;5018860;28;20037;-86
2021/12/02 10:20:46;;;;;;;0.77;0.77;;;1.00;99.90;;;;;;4982138;28;20041;-85
2021/12/02 10:23:26;;;;;;;0.80;0.80;;;1.10;99.90;;;;;;4999132;28;20472;-87
2021/12/02 10:25:58;;;;;;;1.38;1.27;;;1.20;99.90;;;;;;5022433;28;20038;-86
2021/12/02 10:28:29;;;;;;;1.50;1.40;;;1.30;99.90;;;;;;5048850;28;20071;-85
2021/12/02 10:30:58;;;;;;;1.88;1.77;;;1.40;99.90;;;;;;5030308;28;20131;-88
2021/12/02 10:33:46;;;;;;;1.10;1.10;;;1.40;99.90;;;;;;5040513;28;20041;-86
2021/12/02 10:36:34;;;;;;;1.30;1.20;;;2.00;99.90;;;;;;5033089;28;20079;-87
2021/12/02 10:39:11;;;;;;;1.25;1.15;;;1.50;99.90;;;;;;5013424;28;20042;-88
2021/12/02 10:41:36;;;;;;;;;;;1.60;99.90;;;;;;4997993;28;20038;-89
2021/12/02 10:44:26;;;;;;;1.13;1.10;;;1.70;99.90;;;;;;4980349;28;19921;-88
2021/12/02 10:47:03;;;;;;;0.98;0.98;;;1.50;99.90;;;;;;4995998;28;20045;-88
2021/12/02 10:49:33;;;;;;;1.45;1.30;;;1.30;99.90;;;;;;5017372;28;20045;-86
2021/12/02 10:52:03;;;;;;;1.77;1.67;;;2.10;99.90;;;;;;4997495;28;20045;-87
2021/12/02 10:54:35;;;;;;;1.10;0.98;;;1.40;99.90;;;;;;5002139;28;20045;-86
2021/12/02 10:57:19;;;;;;;0.65;0.65;;;1.50;99.90;;;;;;5017173;28;20041;-85
2021/12/02 10:59:49;;;;;;;0.90;0.90;;;1.80;99.90;;;;;;5012916;28;20116;-86
2021/12/02 11:02:40;;;;;;;0.85;0.85;;;1.30;99.90;;;;;;4995200;28;20041;-85
2021/12/02 11:05:22;;;;;;;0.98;0.98;;;1.20;99.90;;;;;;4997222;28;20391;-85
2021/12/02 11:08:05;;;;;;;0.90;0.90;;;1.20;99.90;;;;;;5011586;28;20040;-85
2021/12/02 11:10:37;;;;;;;0.88;0.88;;;1.20;99.90;;;;;;5011594;28;20067;-85
2021/12/02 11:13:03;;;;;;;0.88;0.88;;;1.20;99.90;;;;;;5005146;28;20053;-85
2021/12/02 11:15:31;;;;;;;0.63;0.63;;;0.90;99.90;;;;;;5029879;28;20045;-84
2021/12/02 11:18:05;;;;;;;0.90;0.90;;;2.20;99.90;;;;;;5003755;28;20049;-84
2021/12/02 11:20:35;;;;;;;0.70;0.70;;;1.30;99.90;;;;;;5008079;28;20390;-85
2021/12/02 11:23:12;;;;;;;0.90;0.90;;;1.40;99.90;;;;;;5015194;28;20187;-84
2021/12/02 11:25:39;;;;;;;;;;;1.50;99.90;;;;;;5009858;28;20041;-84
2021/12/02 11:28:06;;;;;;;;;;;1.60;99.90;;;;;;5015143;28;20382;-84
2021/12/02 11:30:33;;;;;;;0.95;0.95;;;1.60;99.90;;;;;;4995383;28;19936;-83
2021/12/02 11:33:10;;;;;;;0.80;0.80;;;1.60;99.90;;;;;;5003317;28;20460;-85
2021/12/02 11:35:42;;;;;;;1.38;1.27;;;1.50;99.90;;;;;;4981652;28;20092;-86
2021/12/02 11:38:26;;;;;;;1.33;0.90;;;1.70;99.90;;;;;;4988123;28;20041;-85
2021/12/02 11:40:55;;;;;;;0.80;0.80;;;1.80;99.90;;;;;;4993538;28;20061;-86
2021/12/02 11:43:27;;;;;;;1.30;1.20;;;1.90;99.90;;;;;;5000435;28;20548;-86
2021/12/02 11:45:55;;;;;;;1.30;1.20;;;1.40;99.90;;;;;;4987760;28;20450;-85
2021/12/02 11:48:21;;;;;;;1.05;0.95;;;1.40;99.90;;;;;;5002671;28;20071;-85
2021/12/02 11:50:50;;;;;;;0.70;0.70;;;0.90;99.90;;;;;;5009018;28;20088;-86
2021/12/02 11:53:21;;;;;;;0.80;0.80;;;1.40;99.90;;;;;;5013955;28;20047;-85
2021/12/02 11:55:49;;;;;;;0.90;0.90;;;2.30;99.90;;;;;;4999241;28;20429;-84
2021/12/02 11:58:15;;;;;;;0.90;0.90;;;1.50;99.90;;;;;;5001969;28;20087;-84
2021/12/02 12:00:44;;;;;;;0.88;0.88;;;1.40;99.90;;;;;;4997825;28;20025;-84
2021/12/02 12:03:20;;;;;;;0.90;0.90;;;1.50;99.90;;;;;;4993556;28;20530;-84
2021/12/02 12:05:58;;;;;;;0.87;0.87;;;1.60;99.90;;;;;;5009783;28;20505;-84
2021/12/02 12:08:39;;;;;;;0.80;0.80;;;1.80;99.90;;;;;;5005674;28;20486;-83
2021/12/02 12:11:23;;;;;;;0.80;0.80;;;1.80;99.90;;;;;;4997558;28;20385;-83
2021/12/02 12:13:59;;;;;;;0.77;0.77;;;1.90;99.90;;;;;;4986180;28;20041;-83
2021/12/02 12:16:30;;;;;;;0.77;0.77;;;2.00;99.90;;;;;;5018307;28;20042;-84
2021/12/02 12:19:16;;;;;;;0.73;0.73;;;2.10;99.90;;;;;;5005448;28;20038;-83
2021/12/02 12:21:45;;;;;;;0.95;0.95;;;2.00;99.90;;;;;;5016421;28;20041;-83
2021/12/02 12:24:15;;;;;;;0.80;0.80;;;2.00;99.90;;;;;;5010097;28;20033;-84
2021/12/02 12:26:44;;;;;;;0.80;0.80;;;1.50;99.90;;;;;;4995461;28;20044;-83
2021/12/02 12:29:12;;;;;;;0.80;0.80;;;1.70;99.90;;;;;;5013800;28;20029;-83
2021/12/02 12:32:09;;;;;;;0.77;0.77;;;1.50;99.90;;;;;;4989255;28;20066;-83
2021/12/02 12:34:39;;;;;;;0.70;0.70;;;1.50;99.90;;;;;;5002030;28;20042;-82
2021/12/02 12:37:22;;;;;;;0.80;0.80;;;1.50;99.90;;;;;;4998290;28;20146;-83
2021/12/02 12:40:13;;;;;;;0.80;0.80;;;1.50;99.90;;;;;;5026037;28;20046;-82
2021/12/02 12:42:41;;;;;;;0.80;0.80;;;1.60;99.90;;;;;;5028660;28;20137;-82
2021/12/02 12:45:12;;;;;;;0.80;0.80;;;1.60;99.90;;;;;;5037094;28;20037;-82
2021/12/02 12:47:41;;;;;;;0.80;0.80;;;1.70;99.90;;;;;;5014426;28;20052;-82
2021/12/02 12:50:35;;;;;;;0.90;0.90;;;1.80;99.90;;;;;;5018769;28;20502;-81
2021/12/02 12:53:04;;;;;;;0.70;0.70;;;1.80;99.90;;;;;;5012487;28;20550;-80
2021/12/02 12:55:41;;;;;;;0.85;0.85;;;1.70;99.90;;;;;;5023317;28;20048;-80
2021/12/02 12:58:23;;;;;;;1.20;1.10;;;1.90;99.90;;;;;;5019462;28;20037;-80
2021/12/02 13:00:50;;;;;;;0.90;0.90;;;1.90;99.90;;;;;;5022787;28;20575;-80
2021/12/02 13:03:26;;;;;;;4.47;1.33;;;2.00;99.90;;;;;;5028644;28;20053;-81
2021/12/02 13:06:09;;;;;;;0.93;0.93;;;2.10;99.90;;;;;;5016509;28;20048;-82
2021/12/02 13:08:48;;;;;;;0.88;0.88;;;2.00;99.90;;;;;;5031354;28;20045;-82
2021/12/02 13:11:26;;;;;;;0.90;0.90;;;2.00;99.90;;;;;;5025080;28;20041;-81
2021/12/02 13:13:54;;;;;;;1.45;1.30;;;2.10;99.90;;;;;;5040825;28;20033;-81
2021/12/02 13:16:20;;;;;;;0.80;0.80;;;2.20;99.90;;;;;;5030512;28;20042;-81
2021/12/02 13:18:59;;;;;;;0.80;0.80;;;2.30;99.90;;;;;;5027849;28;20129;-81
2021/12/02 13:21:31;;;;;;;1.83;0.95;;;2.50;99.90;;;;;;5038342;28;20385;-82
2021/12/02 13:24:03;;;;;;;0.80;0.80;;;2.60;99.90;;;;;;5020787;28;20073;-81
2021/12/02 13:26:30;;;;;;;0.70;0.70;;;2.80;99.90;;;;;;5030308;28;20040;-78
2021/12/02 13:29:17;;;;;;;0.80;0.80;;;2.90;99.90;;;;;;5020421;28;20030;-79
2021/12/02 13:31:50;;;;;;;0.80;0.80;;;3.00;99.90;;;;;;5032720;28;20037;-79
2021/12/02 13:34:19;;;;;;;0.90;0.90;;;3.00;99.90;;;;;;5035508;28;20037;-80
2021/12/02 13:36:57;;;;;;;0.80;0.80;;;2.90;99.90;;;;;;5032901;28;20147;-79
2021/12/02 13:39:29;;;;;;;1.38;1.27;;;2.70;99.90;;;;;;5033531;28;20164;-80